sensor_id;sensor_type;location;lat;lon;timestamp;pressure;altitude;pressure_sealevel;temperature
24714;BMP280;12820;51.580;5.010;2022-12-29T00:00:52;100073.78;;;12.63
24714;BMP280;12820;51.580;5.010;2022-12-29T00:05:55;100061.25;;;12.62
24714;BMP280;12820;51.580;5.010;2022-12-29T00:10:58;100058.75;;;12.60
24714;BMP280;12820;51.580;5.010;2022-12-29T00:16:00;100053.00;;;12.57
24714;BMP280;12820;51.580;5.010;2022-12-29T00:21:02;100029.59;;;12.53
24714;BMP280;12820;51.580;5.010;2022-12-29T00:26:23;100028.88;;;12.50
24714;BMP280;12820;51.580;5.010;2022-12-29T00:31:43;100023.13;;;12.46
24714;BMP280;12820;51.580;5.010;2022-12-29T00:37:04;100015.72;;;12.42
24714;BMP280;12820;51.580;5.010;2022-12-29T00:42:09;100009.06;;;12.40
24714;BMP280;12820;51.580;5.010;2022-12-29T00:47:40;100004.06;;;12.38
24714;BMP280;12820;51.580;5.010;2022-12-29T00:52:42;100000.09;;;12.33
24714;BMP280;12820;51.580;5.010;2022-12-29T00:57:44;99994.22;;;12.32
24714;BMP280;12820;51.580;5.010;2022-12-29T01:02:46;99981.66;;;12.31
24714;BMP280;12820;51.580;5.010;2022-12-29T01:07:48;99982.53;;;12.30
24714;BMP280;12820;51.580;5.010;2022-12-29T01:12:51;99983.41;;;12.29
24714;BMP280;12820;51.580;5.010;2022-12-29T01:17:53;99972.47;;;12.30
24714;BMP280;12820;51.580;5.010;2022-12-29T01:22:55;99959.88;;;12.30
24714;BMP280;12820;51.580;5.010;2022-12-29T01:27:57;99953.09;;;12.32
24714;BMP280;12820;51.580;5.010;2022-12-29T01:33:00;99965.63;;;12.33
24714;BMP280;12820;51.580;5.010;2022-12-29T01:38:03;99960.50;;;12.36
24714;BMP280;12820;51.580;5.010;2022-12-29T01:43:09;99941.16;;;12.37
24714;BMP280;12820;51.580;5.010;2022-12-29T01:48:13;99957.81;;;12.41
24714;BMP280;12820;51.580;5.010;2022-12-29T01:53:19;99947.63;;;12.43
24714;BMP280;12820;51.580;5.010;2022-12-29T01:58:24;99949.97;;;12.48
24714;BMP280;12820;51.580;5.010;2022-12-29T02:03:29;99970.78;;;12.53
24714;BMP280;12820;51.580;5.010;2022-12-29T02:08:34;99954.72;;;12.57
24714;BMP280;12820;51.580;5.010;2022-12-29T02:13:37;99947.00;;;12.61
24714;BMP280;12820;51.580;5.010;2022-12-29T02:24:28;99950.94;;;12.68
24714;BMP280;12820;51.580;5.010;2022-12-29T02:29:50;99946.69;;;12.70
24714;BMP280;12820;51.580;5.010;2022-12-29T02:40:24;99944.91;;;12.72
24714;BMP280;12820;51.580;5.010;2022-12-29T02:45:43;99949.06;;;12.73
24714;BMP280;12820;51.580;5.010;2022-12-29T02:50:52;99938.13;;;12.74
24714;BMP280;12820;51.580;5.010;2022-12-29T02:55:57;99931.44;;;12.73
24714;BMP280;12820;51.580;5.010;2022-12-29T03:01:54;99944.91;;;12.72
24714;BMP280;12820;51.580;5.010;2022-12-29T03:07:37;99949.28;;;12.67
24714;BMP280;12820;51.580;5.010;2022-12-29T03:12:56;99946.06;;;12.63
24714;BMP280;12820;51.580;5.010;2022-12-29T03:18:23;99942.03;;;12.58
24714;BMP280;12820;51.580;5.010;2022-12-29T03:23:27;99938.84;;;12.53
24714;BMP280;12820;51.580;5.010;2022-12-29T03:28:36;99946.63;;;12.47
24714;BMP280;12820;51.580;5.010;2022-12-29T03:33:41;99946.00;;;12.43
24714;BMP280;12820;51.580;5.010;2022-12-29T03:38:48;99944.44;;;12.39
24714;BMP280;12820;51.580;5.010;2022-12-29T03:43:52;99931.06;;;12.37
24714;BMP280;12820;51.580;5.010;2022-12-29T03:48:54;99940.34;;;12.36
24714;BMP280;12820;51.580;5.010;2022-12-29T03:53:56;99936.13;;;12.37
24714;BMP280;12820;51.580;5.010;2022-12-29T03:58:59;99942.81;;;12.38
24714;BMP280;12820;51.580;5.010;2022-12-29T04:04:13;99938.56;;;12.38
24714;BMP280;12820;51.580;5.010;2022-12-29T04:09:15;99941.88;;;12.40
24714;BMP280;12820;51.580;5.010;2022-12-29T04:14:20;99948.56;;;12.41
24714;BMP280;12820;51.580;5.010;2022-12-29T04:19:22;99970.38;;;12.42
24714;BMP280;12820;51.580;5.010;2022-12-29T04:24:25;99965.31;;;12.42
24714;BMP280;12820;51.580;5.010;2022-12-29T04:29:27;99991.34;;;12.43
24714;BMP280;12820;51.580;5.010;2022-12-29T04:34:39;100008.19;;;12.41
24714;BMP280;12820;51.580;5.010;2022-12-29T04:39:41;99989.91;;;12.36
24714;BMP280;12820;51.580;5.010;2022-12-29T04:44:44;99988.56;;;12.26
24714;BMP280;12820;51.580;5.010;2022-12-29T04:50:07;99989.03;;;12.13
24714;BMP280;12820;51.580;5.010;2022-12-29T04:55:25;99989.41;;;12.01
24714;BMP280;12820;51.580;5.010;2022-12-29T05:00:28;100007.38;;;11.91
24714;BMP280;12820;51.580;5.010;2022-12-29T05:05:30;100008.47;;;11.84
24714;BMP280;12820;51.580;5.010;2022-12-29T05:10:33;100015.34;;;11.79
24714;BMP280;12820;51.580;5.010;2022-12-29T05:15:47;100027.22;;;11.76
24714;BMP280;12820;51.580;5.010;2022-12-29T05:20:51;100028.94;;;11.74
24714;BMP280;12820;51.580;5.010;2022-12-29T05:25:55;100028.13;;;11.73
24714;BMP280;12820;51.580;5.010;2022-12-29T05:31:23;100037.38;;;11.72
24714;BMP280;12820;51.580;5.010;2022-12-29T05:36:26;100040.81;;;11.71
24714;BMP280;12820;51.580;5.010;2022-12-29T05:41:37;100045.00;;;11.70
24714;BMP280;12820;51.580;5.010;2022-12-29T05:46:47;100054.25;;;11.70
24714;BMP280;12820;51.580;5.010;2022-12-29T05:51:50;100062.56;;;11.72
24714;BMP280;12820;51.580;5.010;2022-12-29T05:56:52;100066.72;;;11.72
24714;BMP280;12820;51.580;5.010;2022-12-29T06:01:55;100052.50;;;11.72
24714;BMP280;12820;51.580;5.010;2022-12-29T06:06:57;100041.56;;;11.72
24714;BMP280;12820;51.580;5.010;2022-12-29T06:12:15;100047.47;;;11.72
24714;BMP280;12820;51.580;5.010;2022-12-29T06:17:20;100039.91;;;11.72
24714;BMP280;12820;51.580;5.010;2022-12-29T06:22:24;100043.25;;;11.72
24714;BMP280;12820;51.580;5.010;2022-12-29T06:27:28;100058.47;;;11.69
24714;BMP280;12820;51.580;5.010;2022-12-29T06:32:30;100047.66;;;11.66
24714;BMP280;12820;51.580;5.010;2022-12-29T06:37:38;100040.16;;;11.64
24714;BMP280;12820;51.580;5.010;2022-12-29T06:42:41;100050.19;;;11.66
24714;BMP280;12820;51.580;5.010;2022-12-29T06:48:01;100054.28;;;11.68
24714;BMP280;12820;51.580;5.010;2022-12-29T06:53:04;100065.19;;;11.69
24714;BMP280;12820;51.580;5.010;2022-12-29T06:58:06;100072.72;;;11.69
24714;BMP280;12820;51.580;5.010;2022-12-29T07:03:08;100073.59;;;11.68
24714;BMP280;12820;51.580;5.010;2022-12-29T07:08:10;100071.06;;;11.68
24714;BMP280;12820;51.580;5.010;2022-12-29T07:13:12;100096.25;;;11.68
24714;BMP280;12820;51.580;5.010;2022-12-29T07:18:14;100093.81;;;11.66
24714;BMP280;12820;51.580;5.010;2022-12-29T07:23:18;100091.31;;;11.65
24714;BMP280;12820;51.580;5.010;2022-12-29T07:28:20;100098.91;;;11.63
24714;BMP280;12820;51.580;5.010;2022-12-29T07:33:22;100093.16;;;11.60
24714;BMP280;12820;51.580;5.010;2022-12-29T07:38:24;100107.31;;;11.62
24714;BMP280;12820;51.580;5.010;2022-12-29T07:43:26;100115.69;;;11.63
24714;BMP280;12820;51.580;5.010;2022-12-29T07:48:52;100129.03;;;11.66
24714;BMP280;12820;51.580;5.010;2022-12-29T07:53:54;100134.94;;;11.65
24714;BMP280;12820;51.580;5.010;2022-12-29T07:58:56;100140.81;;;11.64
24714;BMP280;12820;51.580;5.010;2022-12-29T08:03:58;100142.53;;;11.62
24714;BMP280;12820;51.580;5.010;2022-12-29T08:09:00;100127.44;;;11.62
24714;BMP280;12820;51.580;5.010;2022-12-29T08:14:13;100126.56;;;11.65
24714;BMP280;12820;51.580;5.010;2022-12-29T08:19:15;100129.06;;;11.65
24714;BMP280;12820;51.580;5.010;2022-12-29T08:24:17;100115.56;;;11.67
24714;BMP280;12820;51.580;5.010;2022-12-29T08:29:19;100113.72;;;11.72
24714;BMP280;12820;51.580;5.010;2022-12-29T08:34:23;100111.91;;;11.77
24714;BMP280;12820;51.580;5.010;2022-12-29T08:39:25;100115.22;;;11.79
24714;BMP280;12820;51.580;5.010;2022-12-29T08:44:27;100123.59;;;11.79
24714;BMP280;12820;51.580;5.010;2022-12-29T08:49:29;100121.81;;;11.81
24714;BMP280;12820;51.580;5.010;2022-12-29T08:54:32;100137.63;;;11.86
24714;BMP280;12820;51.580;5.010;2022-12-29T08:59:34;100139.19;;;11.90
24714;BMP280;12820;51.580;5.010;2022-12-29T09:04:37;100141.47;;;11.97
24714;BMP280;12820;51.580;5.010;2022-12-29T09:09:39;100157.91;;;12.08
24714;BMP280;12820;51.580;5.010;2022-12-29T09:14:41;100159.16;;;12.23
24714;BMP280;12820;51.580;5.010;2022-12-29T09:19:44;100170.78;;;12.26
24714;BMP280;12820;51.580;5.010;2022-12-29T09:24:48;100183.19;;;12.32
24714;BMP280;12820;51.580;5.010;2022-12-29T09:29:50;100197.56;;;12.29
24714;BMP280;12820;51.580;5.010;2022-12-29T09:34:52;100217.94;;;12.22
24714;BMP280;12820;51.580;5.010;2022-12-29T09:39:54;100225.72;;;12.14
24714;BMP280;12820;51.580;5.010;2022-12-29T09:50:20;100262.50;;;11.91
24714;BMP280;12820;51.580;5.010;2022-12-29T09:55:32;100270.28;;;11.84
24714;BMP280;12820;51.580;5.010;2022-12-29T10:00:41;100271.31;;;11.77
24714;BMP280;12820;51.580;5.010;2022-12-29T10:21:55;100308.63;;;11.64
24714;BMP280;12820;51.580;5.010;2022-12-29T10:27:01;100311.13;;;11.64
24714;BMP280;12820;51.580;5.010;2022-12-29T10:32:25;100332.81;;;11.69
24714;BMP280;12820;51.580;5.010;2022-12-29T10:37:53;100334.25;;;11.77
24714;BMP280;12820;51.580;5.010;2022-12-29T10:42:59;100341.63;;;11.85
24714;BMP280;12820;51.580;5.010;2022-12-29T10:53:06;100363.03;;;11.99
24714;BMP280;12820;51.580;5.010;2022-12-29T10:58:12;100370.38;;;12.06
24714;BMP280;12820;51.580;5.010;2022-12-29T11:08:41;100380.00;;;12.22
24714;BMP280;12820;51.580;5.010;2022-12-29T11:13:50;100395.72;;;12.30
24714;BMP280;12820;51.580;5.010;2022-12-29T11:18:53;100402.97;;;12.42
24714;BMP280;12820;51.580;5.010;2022-12-29T11:24:03;100399.78;;;12.65
24714;BMP280;12820;51.580;5.010;2022-12-29T11:29:24;100389.66;;;12.93
24714;BMP280;12820;51.580;5.010;2022-12-29T11:34:33;100414.72;;;12.99
24714;BMP280;12820;51.580;5.010;2022-12-29T11:44:49;100407.75;;;13.05
24714;BMP280;12820;51.580;5.010;2022-12-29T11:49:56;100406.19;;;13.01
24714;BMP280;12820;51.580;5.010;2022-12-29T11:54:59;100423.69;;;13.07
24714;BMP280;12820;51.580;5.010;2022-12-29T12:00:14;100412.19;;;13.24
24714;BMP280;12820;51.580;5.010;2022-12-29T12:05:24;100425.44;;;13.31
24714;BMP280;12820;51.580;5.010;2022-12-29T12:10:30;100412.00;;;13.30
24714;BMP280;12820;51.580;5.010;2022-12-29T12:15:36;100418.91;;;13.25
24714;BMP280;12820;51.580;5.010;2022-12-29T12:20:57;100414.03;;;13.19
24714;BMP280;12820;51.580;5.010;2022-12-29T12:26:12;100415.03;;;13.14
24714;BMP280;12820;51.580;5.010;2022-12-29T12:31:21;100425.47;;;13.04
24714;BMP280;12820;51.580;5.010;2022-12-29T12:37:02;100426.47;;;13.25
24714;BMP280;12820;51.580;5.010;2022-12-29T12:42:39;100424.81;;;13.50
24714;BMP280;12820;51.580;5.010;2022-12-29T12:48:03;100442.34;;;13.54
24714;BMP280;12820;51.580;5.010;2022-12-29T12:58:55;100447.22;;;13.33
24714;BMP280;12820;51.580;5.010;2022-12-29T13:04:28;100460.38;;;13.17
24714;BMP280;12820;51.580;5.010;2022-12-29T13:25:48;100472.47;;;12.48
24714;BMP280;12820;51.580;5.010;2022-12-29T13:32:10;100466.13;;;12.36
24714;BMP280;12820;51.580;5.010;2022-12-29T13:36:47;100470.47;;;12.31
24714;BMP280;12820;51.580;5.010;2022-12-29T13:41:54;100475.59;;;12.28
24714;BMP280;12820;51.580;5.010;2022-12-29T13:47:00;100470.56;;;12.26
24714;BMP280;12820;51.580;5.010;2022-12-29T13:52:12;100468.22;;;12.21
24714;BMP280;12820;51.580;5.010;2022-12-29T13:58:03;100473.38;;;12.16
24714;BMP280;12820;51.580;5.010;2022-12-29T14:07:41;100471.94;;;12.07
24714;BMP280;12820;51.580;5.010;2022-12-29T14:12:44;100482.06;;;12.05
24714;BMP280;12820;51.580;5.010;2022-12-29T14:18:04;100480.47;;;12.03
24714;BMP280;12820;51.580;5.010;2022-12-29T14:28:22;100499.16;;;11.94
24714;BMP280;12820;51.580;5.010;2022-12-29T14:33:27;100490.00;;;11.90
24714;BMP280;12820;51.580;5.010;2022-12-29T14:38:30;100505.19;;;11.88
24714;BMP280;12820;51.580;5.010;2022-12-29T14:43:32;100521.22;;;11.85
24714;BMP280;12820;51.580;5.010;2022-12-29T14:48:41;100510.47;;;11.77
24714;BMP280;12820;51.580;5.010;2022-12-29T14:53:48;100508.06;;;11.73
24714;BMP280;12820;51.580;5.010;2022-12-29T14:59:00;100508.97;;;11.71
24714;BMP280;12820;51.580;5.010;2022-12-29T15:04:13;100512.34;;;11.70
24714;BMP280;12820;51.580;5.010;2022-12-29T15:09:28;100512.50;;;11.64
24714;BMP280;12820;51.580;5.010;2022-12-29T15:14:35;100520.97;;;11.60
24714;BMP280;12820;51.580;5.010;2022-12-29T15:19:38;100523.75;;;11.50
24714;BMP280;12820;51.580;5.010;2022-12-29T15:24:43;100528.06;;;11.43
24714;BMP280;12820;51.580;5.010;2022-12-29T15:29:46;100537.47;;;11.37
24714;BMP280;12820;51.580;5.010;2022-12-29T15:34:57;100526.69;;;11.31
24714;BMP280;12820;51.580;5.010;2022-12-29T15:40:03;100537.66;;;11.25
24714;BMP280;12820;51.580;5.010;2022-12-29T15:45:08;100543.63;;;11.21
24714;BMP280;12820;51.580;5.010;2022-12-29T15:50:26;100542.97;;;11.14
24714;BMP280;12820;51.580;5.010;2022-12-29T15:55:33;100554.00;;;11.08
24714;BMP280;12820;51.580;5.010;2022-12-29T16:00:36;100570.03;;;11.01
24714;BMP280;12820;51.580;5.010;2022-12-29T16:05:40;100578.53;;;10.96
24714;BMP280;12820;51.580;5.010;2022-12-29T16:10:43;100597.94;;;10.90
24714;BMP280;12820;51.580;5.010;2022-12-29T16:15:46;100606.41;;;10.86
24714;BMP280;12820;51.580;5.010;2022-12-29T16:20:49;100602.28;;;10.82
24714;BMP280;12820;51.580;5.010;2022-12-29T16:25:51;100606.53;;;10.80
24714;BMP280;12820;51.580;5.010;2022-12-29T16:31:03;100606.56;;;10.77
24714;BMP280;12820;51.580;5.010;2022-12-29T16:36:21;100624.22;;;10.76
24714;BMP280;12820;51.580;5.010;2022-12-29T16:41:31;100618.38;;;10.72
24714;BMP280;12820;51.580;5.010;2022-12-29T16:46:33;100620.97;;;10.69
24714;BMP280;12820;51.580;5.010;2022-12-29T16:51:36;100631.06;;;10.66
24714;BMP280;12820;51.580;5.010;2022-12-29T16:56:43;100623.56;;;10.64
24714;BMP280;12820;51.580;5.010;2022-12-29T17:01:46;100620.28;;;10.62
24714;BMP280;12820;51.580;5.010;2022-12-29T17:06:48;100637.03;;;10.61
24714;BMP280;12820;51.580;5.010;2022-12-29T17:11:55;100638.75;;;10.58
24714;BMP280;12820;51.580;5.010;2022-12-29T17:17:20;100643.84;;;10.53
24714;BMP280;12820;51.580;5.010;2022-12-29T17:22:25;100655.72;;;10.47
24714;BMP280;12820;51.580;5.010;2022-12-29T17:27:34;100664.19;;;10.40
24714;BMP280;12820;51.580;5.010;2022-12-29T17:32:39;100681.06;;;10.34
24714;BMP280;12820;51.580;5.010;2022-12-29T17:37:42;100673.63;;;10.27
24714;BMP280;12820;51.580;5.010;2022-12-29T17:42:51;100682.06;;;10.21
24714;BMP280;12820;51.580;5.010;2022-12-29T17:47:53;100688.84;;;10.16
24714;BMP280;12820;51.580;5.010;2022-12-29T17:53:06;100694.00;;;10.09
24714;BMP280;12820;51.580;5.010;2022-12-29T17:58:24;100700.78;;;10.03
24714;BMP280;12820;51.580;5.010;2022-12-29T18:03:35;100707.53;;;9.98
24714;BMP280;12820;51.580;5.010;2022-12-29T18:08:51;100703.47;;;9.91
24714;BMP280;12820;51.580;5.010;2022-12-29T18:13:54;100712.69;;;9.88
24714;BMP280;12820;51.580;5.010;2022-12-29T18:18:56;100718.59;;;9.84
24714;BMP280;12820;51.580;5.010;2022-12-29T18:23:58;100723.69;;;9.81
24714;BMP280;12820;51.580;5.010;2022-12-29T18:29:00;100724.53;;;9.78
24714;BMP280;12820;51.580;5.010;2022-12-29T18:34:11;100733.78;;;9.77
24714;BMP280;12820;51.580;5.010;2022-12-29T18:39:14;100734.59;;;9.73
24714;BMP280;12820;51.580;5.010;2022-12-29T18:44:16;100747.19;;;9.71
24714;BMP280;12820;51.580;5.010;2022-12-29T18:49:18;100757.19;;;9.74
24714;BMP280;12820;51.580;5.010;2022-12-29T18:54:30;100747.97;;;9.76
24714;BMP280;12820;51.580;5.010;2022-12-29T18:59:33;100753.81;;;9.78
24714;BMP280;12820;51.580;5.010;2022-12-29T19:04:35;100766.38;;;9.78
24714;BMP280;12820;51.580;5.010;2022-12-29T19:09:37;100777.25;;;9.78
24714;BMP280;12820;51.580;5.010;2022-12-29T19:14:39;100776.44;;;9.77
24714;BMP280;12820;51.580;5.010;2022-12-29T19:19:41;100769.72;;;9.74
24714;BMP280;12820;51.580;5.010;2022-12-29T19:24:43;100773.97;;;9.72
24714;BMP280;12820;51.580;5.010;2022-12-29T19:29:53;100780.66;;;9.70
24714;BMP280;12820;51.580;5.010;2022-12-29T19:35:39;100780.72;;;9.66
24714;BMP280;12820;51.580;5.010;2022-12-29T19:40:47;100784.06;;;9.63
24714;BMP280;12820;51.580;5.010;2022-12-29T19:45:49;100791.66;;;9.60
24714;BMP280;12820;51.580;5.010;2022-12-29T19:50:53;100794.19;;;9.58
24714;BMP280;12820;51.580;5.010;2022-12-29T19:55:55;100794.22;;;9.55
24714;BMP280;12820;51.580;5.010;2022-12-29T20:01:16;100791.75;;;9.52
24714;BMP280;12820;51.580;5.010;2022-12-29T20:06:19;100800.13;;;9.49
24714;BMP280;12820;51.580;5.010;2022-12-29T20:11:21;100796.81;;;9.44
24714;BMP280;12820;51.580;5.010;2022-12-29T20:16:23;100812.75;;;9.42
24714;BMP280;12820;51.580;5.010;2022-12-29T20:21:26;100810.28;;;9.38
24714;BMP280;12820;51.580;5.010;2022-12-29T20:26:28;100805.28;;;9.35
24714;BMP280;12820;51.580;5.010;2022-12-29T20:31:34;100807.84;;;9.30
24714;BMP280;12820;51.580;5.010;2022-12-29T20:36:43;100812.06;;;9.27
24714;BMP280;12820;51.580;5.010;2022-12-29T20:41:46;100815.44;;;9.24
24714;BMP280;12820;51.580;5.010;2022-12-29T20:46:48;100829.66;;;9.23
24714;BMP280;12820;51.580;5.010;2022-12-29T20:51:51;100828.00;;;9.22
24714;BMP280;12820;51.580;5.010;2022-12-29T20:57:08;100843.88;;;9.22
24714;BMP280;12820;51.580;5.010;2022-12-29T21:02:19;100842.19;;;9.21
24714;BMP280;12820;51.580;5.010;2022-12-29T21:07:21;100840.53;;;9.22
24714;BMP280;12820;51.580;5.010;2022-12-29T21:12:23;100841.38;;;9.21
24714;BMP280;12820;51.580;5.010;2022-12-29T21:17:26;100840.56;;;9.19
24714;BMP280;12820;51.580;5.010;2022-12-29T21:22:28;100844.75;;;9.17
24714;BMP280;12820;51.580;5.010;2022-12-29T21:27:31;100853.94;;;9.16
24714;BMP280;12820;51.580;5.010;2022-12-29T21:32:34;100856.50;;;9.12
24714;BMP280;12820;51.580;5.010;2022-12-29T21:37:36;100859.84;;;9.11
24714;BMP280;12820;51.580;5.010;2022-12-29T21:42:38;100856.53;;;9.09
24714;BMP280;12820;51.580;5.010;2022-12-29T21:47:40;100865.72;;;9.07
24714;BMP280;12820;51.580;5.010;2022-12-29T21:53:01;100873.28;;;9.04
24714;BMP280;12820;51.580;5.010;2022-12-29T21:58:03;100895.84;;;9.01
24714;BMP280;12820;51.580;5.010;2022-12-29T22:03:24;100898.38;;;8.98
24714;BMP280;12820;51.580;5.010;2022-12-29T22:08:45;100897.56;;;8.96
24714;BMP280;12820;51.580;5.010;2022-12-29T22:14:05;100918.47;;;8.94
24714;BMP280;12820;51.580;5.010;2022-12-29T22:19:10;100931.03;;;8.91
24714;BMP280;12820;51.580;5.010;2022-12-29T22:24:12;100941.06;;;8.89
24714;BMP280;12820;51.580;5.010;2022-12-29T22:29:14;100942.75;;;8.86
24714;BMP280;12820;51.580;5.010;2022-12-29T22:34:16;100956.09;;;8.84
24714;BMP280;12820;51.580;5.010;2022-12-29T22:39:18;100953.59;;;8.82
24714;BMP280;12820;51.580;5.010;2022-12-29T22:44:20;100956.16;;;8.81
24714;BMP280;12820;51.580;5.010;2022-12-29T22:49:23;100961.97;;;8.78
24714;BMP280;12820;51.580;5.010;2022-12-29T22:54:25;100964.50;;;8.75
24714;BMP280;12820;51.580;5.010;2022-12-29T22:59:27;100979.56;;;8.74
24714;BMP280;12820;51.580;5.010;2022-12-29T23:04:29;100980.41;;;8.70
24714;BMP280;12820;51.580;5.010;2022-12-29T23:09:52;100984.56;;;8.68
24714;BMP280;12820;51.580;5.010;2022-12-29T23:14:54;100997.09;;;8.68
24714;BMP280;12820;51.580;5.010;2022-12-29T23:19:56;100981.25;;;8.66
24714;BMP280;12820;51.580;5.010;2022-12-29T23:24:58;100979.59;;;8.64
24714;BMP280;12820;51.580;5.010;2022-12-29T23:30:00;100998.78;;;8.63
24714;BMP280;12820;51.580;5.010;2022-12-29T23:35:03;101003.00;;;8.61
24714;BMP280;12820;51.580;5.010;2022-12-29T23:40:05;101014.69;;;8.61
24714;BMP280;12820;51.580;5.010;2022-12-29T23:45:09;101018.06;;;8.58
24714;BMP280;12820;51.580;5.010;2022-12-29T23:50:11;101024.72;;;8.56
24714;BMP280;12820;51.580;5.010;2022-12-29T23:55:13;101026.38;;;8.54
